sensor_id;sensor_type;location;lat;lon;timestamp;pressure;altitude;pressure_sealevel;temperature
65290;BMP180;51893;59.754;10.110;2024-01-30T00:00:01;102633.40;;;1.10
65290;BMP180;51893;59.754;10.110;2024-01-30T00:02:29;102640.40;;;1.10
65290;BMP180;51893;59.754;10.110;2024-01-30T00:04:57;102640.20;;;1.00
65290;BMP180;51893;59.754;10.110;2024-01-30T00:07:28;102643.40;;;1.00
65290;BMP180;51893;59.754;10.110;2024-01-30T00:09:58;102646.80;;;1.00
65290;BMP180;51893;59.754;10.110;2024-01-30T00:12:28;102642.00;;;1.00
65290;BMP180;51893;59.754;10.110;2024-01-30T00:14:58;102643.00;;;1.00
65290;BMP180;51893;59.754;10.110;2024-01-30T00:17:26;102644.40;;;1.00
65290;BMP180;51893;59.754;10.110;2024-01-30T00:19:55;102652.80;;;1.00
65290;BMP180;51893;59.754;10.110;2024-01-30T00:22:24;102650.40;;;1.00
65290;BMP180;51893;59.754;10.110;2024-01-30T00:24:53;102648.40;;;1.10
65290;BMP180;51893;59.754;10.110;2024-01-30T00:27:20;102645.60;;;1.10
65290;BMP180;51893;59.754;10.110;2024-01-30T00:29:48;102644.60;;;1.10
65290;BMP180;51893;59.754;10.110;2024-01-30T00:32:17;102640.40;;;1.00
65290;BMP180;51893;59.754;10.110;2024-01-30T00:34:47;102635.80;;;1.00
65290;BMP180;51893;59.754;10.110;2024-01-30T00:37:15;102632.20;;;1.00
65290;BMP180;51893;59.754;10.110;2024-01-30T00:39:44;102640.00;;;1.00
65290;BMP180;51893;59.754;10.110;2024-01-30T00:42:12;102638.80;;;1.10
65290;BMP180;51893;59.754;10.110;2024-01-30T00:44:40;102633.40;;;1.18
65290;BMP180;51893;59.754;10.110;2024-01-30T00:47:09;102633.00;;;1.10
65290;BMP180;51893;59.754;10.110;2024-01-30T00:49:37;102636.20;;;1.10
65290;BMP180;51893;59.754;10.110;2024-01-30T00:52:06;102638.60;;;1.00
65290;BMP180;51893;59.754;10.110;2024-01-30T00:54:34;102637.80;;;0.90
65290;BMP180;51893;59.754;10.110;2024-01-30T00:57:02;102629.60;;;0.86
65290;BMP180;51893;59.754;10.110;2024-01-30T00:59:30;102630.80;;;0.80
65290;BMP180;51893;59.754;10.110;2024-01-30T01:01:59;102629.80;;;0.80
65290;BMP180;51893;59.754;10.110;2024-01-30T01:04:27;102633.80;;;0.74
65290;BMP180;51893;59.754;10.110;2024-01-30T01:06:55;102630.40;;;0.70
65290;BMP180;51893;59.754;10.110;2024-01-30T01:09:23;102626.80;;;0.72
65290;BMP180;51893;59.754;10.110;2024-01-30T01:11:51;102625.40;;;0.80
65290;BMP180;51893;59.754;10.110;2024-01-30T01:14:19;102623.60;;;0.80
65290;BMP180;51893;59.754;10.110;2024-01-30T01:16:50;102622.60;;;0.90
65290;BMP180;51893;59.754;10.110;2024-01-30T01:19:19;102623.00;;;1.00
65290;BMP180;51893;59.754;10.110;2024-01-30T01:21:48;102620.20;;;1.00
65290;BMP180;51893;59.754;10.110;2024-01-30T01:24:19;102620.60;;;0.90
65290;BMP180;51893;59.754;10.110;2024-01-30T01:26:47;102617.60;;;0.90
65290;BMP180;51893;59.754;10.110;2024-01-30T01:29:15;102614.00;;;0.90
65290;BMP180;51893;59.754;10.110;2024-01-30T01:31:46;102613.40;;;0.90
65290;BMP180;51893;59.754;10.110;2024-01-30T01:34:14;102606.40;;;0.90
65290;BMP180;51893;59.754;10.110;2024-01-30T01:36:42;102609.60;;;0.90
65290;BMP180;51893;59.754;10.110;2024-01-30T01:39:10;102611.00;;;0.90
65290;BMP180;51893;59.754;10.110;2024-01-30T01:41:38;102605.60;;;0.90
65290;BMP180;51893;59.754;10.110;2024-01-30T01:44:09;102603.00;;;0.90
65290;BMP180;51893;59.754;10.110;2024-01-30T01:46:37;102600.60;;;0.90
65290;BMP180;51893;59.754;10.110;2024-01-30T01:49:06;102604.40;;;1.00
65290;BMP180;51893;59.754;10.110;2024-01-30T01:51:36;102599.00;;;0.94
65290;BMP180;51893;59.754;10.110;2024-01-30T01:54:06;102592.00;;;1.00
65290;BMP180;51893;59.754;10.110;2024-01-30T01:56:38;102590.60;;;1.00
65290;BMP180;51893;59.754;10.110;2024-01-30T01:59:08;102582.60;;;0.98
65290;BMP180;51893;59.754;10.110;2024-01-30T02:01:37;102588.80;;;0.90
65290;BMP180;51893;59.754;10.110;2024-01-30T02:04:07;102585.00;;;0.90
65290;BMP180;51893;59.754;10.110;2024-01-30T02:06:38;102589.60;;;0.90
65290;BMP180;51893;59.754;10.110;2024-01-30T02:09:07;102582.60;;;0.80
65290;BMP180;51893;59.754;10.110;2024-01-30T02:11:38;102576.00;;;0.80
65290;BMP180;51893;59.754;10.110;2024-01-30T02:14:06;102578.00;;;0.78
65290;BMP180;51893;59.754;10.110;2024-01-30T02:16:34;102576.00;;;0.70
65290;BMP180;51893;59.754;10.110;2024-01-30T02:19:02;102577.20;;;0.70
65290;BMP180;51893;59.754;10.110;2024-01-30T02:21:31;102573.80;;;0.70
65290;BMP180;51893;59.754;10.110;2024-01-30T02:23:59;102577.60;;;0.70
65290;BMP180;51893;59.754;10.110;2024-01-30T02:26:28;102579.80;;;0.70
65290;BMP180;51893;59.754;10.110;2024-01-30T02:28:56;102575.80;;;0.70
65290;BMP180;51893;59.754;10.110;2024-01-30T02:31:25;102578.80;;;0.70
65290;BMP180;51893;59.754;10.110;2024-01-30T02:33:54;102577.00;;;0.70
65290;BMP180;51893;59.754;10.110;2024-01-30T02:36:22;102578.60;;;0.70
65290;BMP180;51893;59.754;10.110;2024-01-30T02:38:50;102577.00;;;0.70
65290;BMP180;51893;59.754;10.110;2024-01-30T02:41:19;102576.20;;;0.70
65290;BMP180;51893;59.754;10.110;2024-01-30T02:43:47;102570.40;;;0.66
65290;BMP180;51893;59.754;10.110;2024-01-30T02:46:17;102570.60;;;0.60
65290;BMP180;51893;59.754;10.110;2024-01-30T02:48:45;102572.60;;;0.50
65290;BMP180;51893;59.754;10.110;2024-01-30T02:51:13;102572.00;;;0.50
65290;BMP180;51893;59.754;10.110;2024-01-30T02:53:41;102569.00;;;0.50
65290;BMP180;51893;59.754;10.110;2024-01-30T02:56:10;102564.80;;;0.42
65290;BMP180;51893;59.754;10.110;2024-01-30T02:58:40;102563.00;;;0.42
65290;BMP180;51893;59.754;10.110;2024-01-30T03:01:08;102554.80;;;0.50
65290;BMP180;51893;59.754;10.110;2024-01-30T03:03:37;102553.00;;;0.50
65290;BMP180;51893;59.754;10.110;2024-01-30T03:06:05;102550.20;;;0.50
65290;BMP180;51893;59.754;10.110;2024-01-30T03:08:33;102550.40;;;0.42
65290;BMP180;51893;59.754;10.110;2024-01-30T03:11:03;102547.00;;;0.32
65290;BMP180;51893;59.754;10.110;2024-01-30T03:13:31;102548.60;;;0.30
65290;BMP180;51893;59.754;10.110;2024-01-30T03:16:01;102548.40;;;0.20
65290;BMP180;51893;59.754;10.110;2024-01-30T03:18:29;102551.60;;;0.14
65290;BMP180;51893;59.754;10.110;2024-01-30T03:20:57;102550.00;;;0.10
65290;BMP180;51893;59.754;10.110;2024-01-30T03:23:25;102543.20;;;0.12
65290;BMP180;51893;59.754;10.110;2024-01-30T03:25:53;102545.00;;;0.20
65290;BMP180;51893;59.754;10.110;2024-01-30T03:28:21;102538.80;;;0.20
65290;BMP180;51893;59.754;10.110;2024-01-30T03:30:51;102541.00;;;0.20
65290;BMP180;51893;59.754;10.110;2024-01-30T03:33:19;102540.20;;;0.20
65290;BMP180;51893;59.754;10.110;2024-01-30T03:35:50;102541.00;;;0.10
65290;BMP180;51893;59.754;10.110;2024-01-30T03:38:18;102540.60;;;0.10
65290;BMP180;51893;59.754;10.110;2024-01-30T03:40:46;102543.00;;;0.06
65290;BMP180;51893;59.754;10.110;2024-01-30T03:43:15;102537.00;;;0.00
65290;BMP180;51893;59.754;10.110;2024-01-30T03:45:43;102538.80;;;0.10
65290;BMP180;51893;59.754;10.110;2024-01-30T03:48:12;102536.20;;;0.12
65290;BMP180;51893;59.754;10.110;2024-01-30T03:50:40;102525.80;;;0.18
65290;BMP180;51893;59.754;10.110;2024-01-30T03:53:09;102527.60;;;0.18
65290;BMP180;51893;59.754;10.110;2024-01-30T03:55:38;102525.80;;;0.20
65290;BMP180;51893;59.754;10.110;2024-01-30T03:58:06;102521.80;;;0.20
65290;BMP180;51893;59.754;10.110;2024-01-30T04:00:34;102519.80;;;0.20
65290;BMP180;51893;59.754;10.110;2024-01-30T04:03:04;102518.00;;;0.20
65290;BMP180;51893;59.754;10.110;2024-01-30T04:05:33;102523.00;;;0.16
65290;BMP180;51893;59.754;10.110;2024-01-30T04:08:02;102522.40;;;0.10
65290;BMP180;51893;59.754;10.110;2024-01-30T04:10:30;102522.00;;;0.20
65290;BMP180;51893;59.754;10.110;2024-01-30T04:12:59;102515.00;;;0.20
65290;BMP180;51893;59.754;10.110;2024-01-30T04:15:30;102517.40;;;0.20
65290;BMP180;51893;59.754;10.110;2024-01-30T04:17:58;102518.00;;;0.30
65290;BMP180;51893;59.754;10.110;2024-01-30T04:20:27;102512.20;;;0.30
65290;BMP180;51893;59.754;10.110;2024-01-30T04:22:55;102513.80;;;0.30
65290;BMP180;51893;59.754;10.110;2024-01-30T04:25:24;102515.60;;;0.30
65290;BMP180;51893;59.754;10.110;2024-01-30T04:27:53;102515.60;;;0.30
65290;BMP180;51893;59.754;10.110;2024-01-30T04:30:23;102513.00;;;0.40
65290;BMP180;51893;59.754;10.110;2024-01-30T04:32:51;102516.00;;;0.40
65290;BMP180;51893;59.754;10.110;2024-01-30T04:35:26;102519.40;;;0.40
65290;BMP180;51893;59.754;10.110;2024-01-30T04:37:55;102521.00;;;0.40
65290;BMP180;51893;59.754;10.110;2024-01-30T04:40:23;102524.40;;;0.40
65290;BMP180;51893;59.754;10.110;2024-01-30T04:42:51;102522.40;;;0.40
65290;BMP180;51893;59.754;10.110;2024-01-30T04:45:20;102520.40;;;0.40
65290;BMP180;51893;59.754;10.110;2024-01-30T04:47:48;102515.00;;;0.30
65290;BMP180;51893;59.754;10.110;2024-01-30T04:50:16;102516.20;;;0.30
65290;BMP180;51893;59.754;10.110;2024-01-30T04:52:45;102520.80;;;0.40
65290;BMP180;51893;59.754;10.110;2024-01-30T04:55:14;102518.40;;;0.40
65290;BMP180;51893;59.754;10.110;2024-01-30T04:57:47;102516.80;;;0.40
65290;BMP180;51893;59.754;10.110;2024-01-30T05:00:18;102517.80;;;0.40
65290;BMP180;51893;59.754;10.110;2024-01-30T05:02:48;102520.40;;;0.50
65290;BMP180;51893;59.754;10.110;2024-01-30T05:05:16;102516.40;;;0.50
65290;BMP180;51893;59.754;10.110;2024-01-30T05:07:44;102516.40;;;0.40
65290;BMP180;51893;59.754;10.110;2024-01-30T05:10:15;102508.00;;;0.32
65290;BMP180;51893;59.754;10.110;2024-01-30T05:12:43;102507.60;;;0.30
65290;BMP180;51893;59.754;10.110;2024-01-30T05:15:13;102507.60;;;0.30
65290;BMP180;51893;59.754;10.110;2024-01-30T05:17:44;102510.20;;;0.30
65290;BMP180;51893;59.754;10.110;2024-01-30T05:20:13;102507.80;;;0.30
65290;BMP180;51893;59.754;10.110;2024-01-30T05:22:41;102498.80;;;0.30
65290;BMP180;51893;59.754;10.110;2024-01-30T05:25:16;102495.80;;;0.34
65290;BMP180;51893;59.754;10.110;2024-01-30T05:27:46;102495.80;;;0.40
65290;BMP180;51893;59.754;10.110;2024-01-30T05:30:14;102496.20;;;0.40
65290;BMP180;51893;59.754;10.110;2024-01-30T05:32:43;102501.80;;;0.40
65290;BMP180;51893;59.754;10.110;2024-01-30T05:35:12;102494.40;;;0.40
65290;BMP180;51893;59.754;10.110;2024-01-30T05:37:39;102495.20;;;0.40
65290;BMP180;51893;59.754;10.110;2024-01-30T05:40:08;102488.40;;;0.40
65290;BMP180;51893;59.754;10.110;2024-01-30T05:42:36;102484.40;;;0.40
65290;BMP180;51893;59.754;10.110;2024-01-30T05:45:05;102480.00;;;0.30
65290;BMP180;51893;59.754;10.110;2024-01-30T05:47:33;102481.80;;;0.30
65290;BMP180;51893;59.754;10.110;2024-01-30T05:50:04;102481.60;;;0.32
65290;BMP180;51893;59.754;10.110;2024-01-30T05:52:33;102488.00;;;0.40
65290;BMP180;51893;59.754;10.110;2024-01-30T05:55:01;102483.40;;;0.40
65290;BMP180;51893;59.754;10.110;2024-01-30T05:57:30;102484.80;;;0.50
65290;BMP180;51893;59.754;10.110;2024-01-30T05:59:58;102485.40;;;0.50
65290;BMP180;51893;59.754;10.110;2024-01-30T06:02:27;102480.40;;;0.60
65290;BMP180;51893;59.754;10.110;2024-01-30T06:04:55;102483.00;;;0.58
65290;BMP180;51893;59.754;10.110;2024-01-30T06:07:23;102486.40;;;0.50
65290;BMP180;51893;59.754;10.110;2024-01-30T06:09:51;102481.40;;;0.54
65290;BMP180;51893;59.754;10.110;2024-01-30T06:12:19;102479.20;;;0.56
65290;BMP180;51893;59.754;10.110;2024-01-30T06:14:47;102478.80;;;0.50
65290;BMP180;51893;59.754;10.110;2024-01-30T06:17:15;102479.20;;;0.50
65290;BMP180;51893;59.754;10.110;2024-01-30T06:19:44;102473.20;;;0.50
65290;BMP180;51893;59.754;10.110;2024-01-30T06:22:12;102468.00;;;0.50
65290;BMP180;51893;59.754;10.110;2024-01-30T06:24:40;102472.00;;;0.50
65290;BMP180;51893;59.754;10.110;2024-01-30T06:27:08;102471.00;;;0.42
65290;BMP180;51893;59.754;10.110;2024-01-30T06:29:36;102474.00;;;0.40
65290;BMP180;51893;59.754;10.110;2024-01-30T06:32:05;102472.40;;;0.50
65290;BMP180;51893;59.754;10.110;2024-01-30T06:34:33;102466.40;;;0.50
65290;BMP180;51893;59.754;10.110;2024-01-30T06:37:01;102468.20;;;0.50
65290;BMP180;51893;59.754;10.110;2024-01-30T06:39:30;102464.60;;;0.58
65290;BMP180;51893;59.754;10.110;2024-01-30T06:41:58;102465.60;;;0.52
65290;BMP180;51893;59.754;10.110;2024-01-30T06:44:26;102466.00;;;0.50
65290;BMP180;51893;59.754;10.110;2024-01-30T06:46:56;102466.40;;;0.50
65290;BMP180;51893;59.754;10.110;2024-01-30T06:49:24;102470.00;;;0.44
65290;BMP180;51893;59.754;10.110;2024-01-30T06:51:53;102473.40;;;0.48
65290;BMP180;51893;59.754;10.110;2024-01-30T06:54:21;102473.20;;;0.50
65290;BMP180;51893;59.754;10.110;2024-01-30T06:56:49;102468.60;;;0.58
65290;BMP180;51893;59.754;10.110;2024-01-30T06:59:17;102465.80;;;0.60
65290;BMP180;51893;59.754;10.110;2024-01-30T07:01:45;102461.40;;;0.60
65290;BMP180;51893;59.754;10.110;2024-01-30T07:04:13;102463.00;;;0.60
65290;BMP180;51893;59.754;10.110;2024-01-30T07:06:42;102460.40;;;0.60
65290;BMP180;51893;59.754;10.110;2024-01-30T07:09:10;102462.20;;;0.60
65290;BMP180;51893;59.754;10.110;2024-01-30T07:11:38;102462.80;;;0.60
65290;BMP180;51893;59.754;10.110;2024-01-30T07:14:07;102459.60;;;0.70
65290;BMP180;51893;59.754;10.110;2024-01-30T07:16:35;102465.80;;;0.60
65290;BMP180;51893;59.754;10.110;2024-01-30T07:19:04;102466.40;;;0.56
65290;BMP180;51893;59.754;10.110;2024-01-30T07:21:32;102467.40;;;0.50
65290;BMP180;51893;59.754;10.110;2024-01-30T07:24:00;102466.00;;;0.50
65290;BMP180;51893;59.754;10.110;2024-01-30T07:26:29;102467.00;;;0.44
65290;BMP180;51893;59.754;10.110;2024-01-30T07:28:58;102466.60;;;0.40
65290;BMP180;51893;59.754;10.110;2024-01-30T07:31:26;102459.60;;;0.40
65290;BMP180;51893;59.754;10.110;2024-01-30T07:33:58;102460.80;;;0.30
65290;BMP180;51893;59.754;10.110;2024-01-30T07:36:27;102460.60;;;0.30
65290;BMP180;51893;59.754;10.110;2024-01-30T07:38:55;102457.40;;;0.30
65290;BMP180;51893;59.754;10.110;2024-01-30T07:41:23;102458.00;;;0.30
65290;BMP180;51893;59.754;10.110;2024-01-30T07:43:53;102460.40;;;0.30
65290;BMP180;51893;59.754;10.110;2024-01-30T07:46:23;102456.00;;;0.30
65290;BMP180;51893;59.754;10.110;2024-01-30T07:48:51;102450.80;;;0.30
65290;BMP180;51893;59.754;10.110;2024-01-30T07:51:22;102448.80;;;0.30
65290;BMP180;51893;59.754;10.110;2024-01-30T07:53:50;102443.00;;;0.38
65290;BMP180;51893;59.754;10.110;2024-01-30T07:56:18;102442.80;;;0.40
65290;BMP180;51893;59.754;10.110;2024-01-30T07:58:46;102443.60;;;0.40
65290;BMP180;51893;59.754;10.110;2024-01-30T08:01:15;102437.00;;;0.40
65290;BMP180;51893;59.754;10.110;2024-01-30T08:03:44;102439.20;;;0.40
65290;BMP180;51893;59.754;10.110;2024-01-30T08:06:12;102437.00;;;0.40
65290;BMP180;51893;59.754;10.110;2024-01-30T08:08:41;102433.60;;;0.40
65290;BMP180;51893;59.754;10.110;2024-01-30T08:11:10;102436.40;;;0.30
65290;BMP180;51893;59.754;10.110;2024-01-30T08:13:39;102445.80;;;0.30
65290;BMP180;51893;59.754;10.110;2024-01-30T08:16:06;102439.60;;;0.30
65290;BMP180;51893;59.754;10.110;2024-01-30T08:18:36;102438.40;;;0.40
65290;BMP180;51893;59.754;10.110;2024-01-30T08:21:06;102440.60;;;0.40
65290;BMP180;51893;59.754;10.110;2024-01-30T08:23:35;102445.60;;;0.40
65290;BMP180;51893;59.754;10.110;2024-01-30T08:26:03;102445.40;;;0.48
65290;BMP180;51893;59.754;10.110;2024-01-30T08:28:34;102450.80;;;0.50
65290;BMP180;51893;59.754;10.110;2024-01-30T08:31:04;102454.60;;;0.50
65290;BMP180;51893;59.754;10.110;2024-01-30T08:33:33;102456.80;;;0.40
65290;BMP180;51893;59.754;10.110;2024-01-30T08:36:01;102455.20;;;0.40
65290;BMP180;51893;59.754;10.110;2024-01-30T08:38:29;102458.80;;;0.50
65290;BMP180;51893;59.754;10.110;2024-01-30T08:40:57;102456.60;;;0.50
65290;BMP180;51893;59.754;10.110;2024-01-30T08:43:26;102460.20;;;0.50
65290;BMP180;51893;59.754;10.110;2024-01-30T08:45:54;102457.20;;;0.48
65290;BMP180;51893;59.754;10.110;2024-01-30T08:48:22;102462.20;;;0.40
65290;BMP180;51893;59.754;10.110;2024-01-30T08:50:51;102457.00;;;0.40
65290;BMP180;51893;59.754;10.110;2024-01-30T08:53:21;102460.00;;;0.40
65290;BMP180;51893;59.754;10.110;2024-01-30T08:55:49;102461.40;;;0.40
65290;BMP180;51893;59.754;10.110;2024-01-30T08:58:17;102462.20;;;0.46
65290;BMP180;51893;59.754;10.110;2024-01-30T09:00:47;102457.80;;;0.50
65290;BMP180;51893;59.754;10.110;2024-01-30T09:03:16;102462.60;;;0.50
65290;BMP180;51893;59.754;10.110;2024-01-30T09:05:44;102459.00;;;0.50
65290;BMP180;51893;59.754;10.110;2024-01-30T09:08:14;102462.00;;;0.48
65290;BMP180;51893;59.754;10.110;2024-01-30T09:10:44;102464.40;;;0.50
65290;BMP180;51893;59.754;10.110;2024-01-30T09:13:13;102456.40;;;0.50
65290;BMP180;51893;59.754;10.110;2024-01-30T09:15:44;102459.60;;;0.50
65290;BMP180;51893;59.754;10.110;2024-01-30T09:18:12;102458.60;;;0.40
65290;BMP180;51893;59.754;10.110;2024-01-30T09:20:40;102454.60;;;0.40
65290;BMP180;51893;59.754;10.110;2024-01-30T09:23:09;102447.80;;;0.30
65290;BMP180;51893;59.754;10.110;2024-01-30T09:25:37;102447.80;;;0.30
65290;BMP180;51893;59.754;10.110;2024-01-30T09:28:07;102442.00;;;0.30
65290;BMP180;51893;59.754;10.110;2024-01-30T09:30:36;102439.20;;;0.30
65290;BMP180;51893;59.754;10.110;2024-01-30T09:33:06;102437.60;;;0.30
65290;BMP180;51893;59.754;10.110;2024-01-30T09:35:36;102435.80;;;0.30
65290;BMP180;51893;59.754;10.110;2024-01-30T09:38:04;102432.20;;;0.30
65290;BMP180;51893;59.754;10.110;2024-01-30T09:40:33;102427.40;;;0.30
65290;BMP180;51893;59.754;10.110;2024-01-30T09:43:01;102425.80;;;0.30
65290;BMP180;51893;59.754;10.110;2024-01-30T09:45:32;102418.20;;;0.30
65290;BMP180;51893;59.754;10.110;2024-01-30T09:48:02;102417.00;;;0.30
65290;BMP180;51893;59.754;10.110;2024-01-30T09:50:33;102413.60;;;0.40
65290;BMP180;51893;59.754;10.110;2024-01-30T09:53:04;102414.80;;;0.40
65290;BMP180;51893;59.754;10.110;2024-01-30T09:55:32;102414.40;;;0.40
65290;BMP180;51893;59.754;10.110;2024-01-30T09:58:01;102411.00;;;0.46
65290;BMP180;51893;59.754;10.110;2024-01-30T10:00:31;102410.20;;;0.50
65290;BMP180;51893;59.754;10.110;2024-01-30T10:02:59;102410.80;;;0.50
65290;BMP180;51893;59.754;10.110;2024-01-30T10:05:31;102404.20;;;0.48
65290;BMP180;51893;59.754;10.110;2024-01-30T10:08:06;102405.20;;;0.50
65290;BMP180;51893;59.754;10.110;2024-01-30T10:10:38;102399.80;;;0.50
65290;BMP180;51893;59.754;10.110;2024-01-30T10:13:06;102394.20;;;0.60
65290;BMP180;51893;59.754;10.110;2024-01-30T10:15:37;102387.00;;;0.70
65290;BMP180;51893;59.754;10.110;2024-01-30T10:18:08;102385.80;;;0.80
65290;BMP180;51893;59.754;10.110;2024-01-30T10:20:38;102375.60;;;0.70
65290;BMP180;51893;59.754;10.110;2024-01-30T10:23:06;102375.40;;;0.60
65290;BMP180;51893;59.754;10.110;2024-01-30T10:25:36;102373.40;;;0.60
65290;BMP180;51893;59.754;10.110;2024-01-30T10:28:05;102367.60;;;0.60
65290;BMP180;51893;59.754;10.110;2024-01-30T10:30:35;102364.40;;;0.64
65290;BMP180;51893;59.754;10.110;2024-01-30T10:33:04;102364.00;;;0.60
65290;BMP180;51893;59.754;10.110;2024-01-30T10:35:32;102360.40;;;0.64
65290;BMP180;51893;59.754;10.110;2024-01-30T10:38:02;102353.20;;;0.70
65290;BMP180;51893;59.754;10.110;2024-01-30T10:40:32;102341.60;;;0.70
65290;BMP180;51893;59.754;10.110;2024-01-30T10:43:10;102340.00;;;0.70
65290;BMP180;51893;59.754;10.110;2024-01-30T10:45:45;102335.20;;;0.70
65290;BMP180;51893;59.754;10.110;2024-01-30T10:48:20;102331.40;;;0.70
65290;BMP180;51893;59.754;10.110;2024-01-30T10:50:57;102321.40;;;0.70
65290;BMP180;51893;59.754;10.110;2024-01-30T10:53:31;102314.40;;;0.70
65290;BMP180;51893;59.754;10.110;2024-01-30T10:56:03;102306.60;;;0.70
65290;BMP180;51893;59.754;10.110;2024-01-30T10:58:33;102293.40;;;0.70
65290;BMP180;51893;59.754;10.110;2024-01-30T11:01:04;102295.00;;;0.64
65290;BMP180;51893;59.754;10.110;2024-01-30T11:03:36;102282.40;;;0.66
65290;BMP180;51893;59.754;10.110;2024-01-30T11:06:05;102275.60;;;0.70
65290;BMP180;51893;59.754;10.110;2024-01-30T11:08:33;102265.60;;;0.70
65290;BMP180;51893;59.754;10.110;2024-01-30T11:11:01;102263.60;;;0.70
65290;BMP180;51893;59.754;10.110;2024-01-30T11:13:31;102258.60;;;0.70
65290;BMP180;51893;59.754;10.110;2024-01-30T11:16:05;102255.80;;;0.70
65290;BMP180;51893;59.754;10.110;2024-01-30T11:18:35;102246.20;;;0.72
65290;BMP180;51893;59.754;10.110;2024-01-30T11:21:06;102244.00;;;0.74
65290;BMP180;51893;59.754;10.110;2024-01-30T11:23:34;102236.60;;;0.80
65290;BMP180;51893;59.754;10.110;2024-01-30T11:26:04;102235.60;;;0.80
65290;BMP180;51893;59.754;10.110;2024-01-30T11:28:38;102228.80;;;0.80
65290;BMP180;51893;59.754;10.110;2024-01-30T11:31:07;102225.00;;;0.80
65290;BMP180;51893;59.754;10.110;2024-01-30T11:33:36;102215.20;;;0.80
65290;BMP180;51893;59.754;10.110;2024-01-30T11:36:05;102216.60;;;0.84
65290;BMP180;51893;59.754;10.110;2024-01-30T11:38:35;102215.20;;;0.90
65290;BMP180;51893;59.754;10.110;2024-01-30T11:41:04;102220.40;;;0.90
65290;BMP180;51893;59.754;10.110;2024-01-30T11:43:35;102221.60;;;0.90
65290;BMP180;51893;59.754;10.110;2024-01-30T11:46:07;102229.60;;;0.90
65290;BMP180;51893;59.754;10.110;2024-01-30T11:48:35;102227.80;;;0.90
65290;BMP180;51893;59.754;10.110;2024-01-30T11:51:04;102232.60;;;0.90
65290;BMP180;51893;59.754;10.110;2024-01-30T11:53:34;102234.40;;;0.90
65290;BMP180;51893;59.754;10.110;2024-01-30T11:56:12;102232.20;;;0.82
65290;BMP180;51893;59.754;10.110;2024-01-30T11:58:43;102225.00;;;0.80
65290;BMP180;51893;59.754;10.110;2024-01-30T12:01:13;102213.60;;;0.80
65290;BMP180;51893;59.754;10.110;2024-01-30T12:03:41;102212.40;;;0.80
65290;BMP180;51893;59.754;10.110;2024-01-30T12:06:15;102202.60;;;0.80
65290;BMP180;51893;59.754;10.110;2024-01-30T12:09:00;102191.40;;;0.70
65290;BMP180;51893;59.754;10.110;2024-01-30T12:11:28;102192.40;;;0.70
65290;BMP180;51893;59.754;10.110;2024-01-30T12:13:58;102185.80;;;0.72
65290;BMP180;51893;59.754;10.110;2024-01-30T12:16:26;102178.40;;;0.80
65290;BMP180;51893;59.754;10.110;2024-01-30T12:19:01;102174.80;;;0.80
65290;BMP180;51893;59.754;10.110;2024-01-30T12:21:30;102170.40;;;0.80
65290;BMP180;51893;59.754;10.110;2024-01-30T12:24:00;102157.60;;;0.80
65290;BMP180;51893;59.754;10.110;2024-01-30T12:26:28;102153.60;;;0.90
65290;BMP180;51893;59.754;10.110;2024-01-30T12:28:56;102152.80;;;0.90
65290;BMP180;51893;59.754;10.110;2024-01-30T12:31:32;102148.40;;;0.80
65290;BMP180;51893;59.754;10.110;2024-01-30T12:34:01;102143.60;;;0.80
65290;BMP180;51893;59.754;10.110;2024-01-30T12:36:30;102148.00;;;0.86
65290;BMP180;51893;59.754;10.110;2024-01-30T12:38:59;102139.40;;;0.90
65290;BMP180;51893;59.754;10.110;2024-01-30T12:41:27;102134.40;;;0.90
65290;BMP180;51893;59.754;10.110;2024-01-30T12:43:57;102132.40;;;0.90
65290;BMP180;51893;59.754;10.110;2024-01-30T12:46:30;102130.40;;;0.90
65290;BMP180;51893;59.754;10.110;2024-01-30T12:48:59;102129.00;;;0.90
65290;BMP180;51893;59.754;10.110;2024-01-30T12:51:27;102128.00;;;0.94
65290;BMP180;51893;59.754;10.110;2024-01-30T12:53:55;102116.80;;;0.98
65290;BMP180;51893;59.754;10.110;2024-01-30T12:56:23;102116.40;;;0.90
65290;BMP180;51893;59.754;10.110;2024-01-30T12:58:52;102113.20;;;0.90
65290;BMP180;51893;59.754;10.110;2024-01-30T13:01:22;102111.00;;;0.90
65290;BMP180;51893;59.754;10.110;2024-01-30T13:03:51;102107.40;;;0.90
65290;BMP180;51893;59.754;10.110;2024-01-30T13:06:20;102112.20;;;0.90
65290;BMP180;51893;59.754;10.110;2024-01-30T13:08:49;102109.80;;;0.90
65290;BMP180;51893;59.754;10.110;2024-01-30T13:11:18;102110.60;;;0.90
65290;BMP180;51893;59.754;10.110;2024-01-30T13:13:51;102109.40;;;0.90
65290;BMP180;51893;59.754;10.110;2024-01-30T13:16:19;102101.60;;;0.90
65290;BMP180;51893;59.754;10.110;2024-01-30T13:18:50;102094.40;;;0.90
65290;BMP180;51893;59.754;10.110;2024-01-30T13:21:19;102096.00;;;1.00
65290;BMP180;51893;59.754;10.110;2024-01-30T13:23:47;102088.00;;;1.00
65290;BMP180;51893;59.754;10.110;2024-01-30T13:26:16;102087.80;;;1.00
65290;BMP180;51893;59.754;10.110;2024-01-30T13:28:44;102086.20;;;1.00
65290;BMP180;51893;59.754;10.110;2024-01-30T13:31:14;102077.60;;;1.00
65290;BMP180;51893;59.754;10.110;2024-01-30T13:33:42;102064.00;;;1.00
65290;BMP180;51893;59.754;10.110;2024-01-30T13:36:11;102059.40;;;1.00
65290;BMP180;51893;59.754;10.110;2024-01-30T13:38:39;102056.80;;;1.10
65290;BMP180;51893;59.754;10.110;2024-01-30T13:41:08;102048.20;;;1.02
65290;BMP180;51893;59.754;10.110;2024-01-30T13:43:36;102041.00;;;1.00
65290;BMP180;51893;59.754;10.110;2024-01-30T13:46:05;102037.60;;;1.00
65290;BMP180;51893;59.754;10.110;2024-01-30T13:48:33;102030.60;;;1.00
65290;BMP180;51893;59.754;10.110;2024-01-30T13:51:01;102028.20;;;1.00
65290;BMP180;51893;59.754;10.110;2024-01-30T13:53:29;102027.20;;;1.00
65290;BMP180;51893;59.754;10.110;2024-01-30T13:55:57;102021.60;;;1.00
65290;BMP180;51893;59.754;10.110;2024-01-30T13:58:25;102024.80;;;1.00
65290;BMP180;51893;59.754;10.110;2024-01-30T14:00:53;102023.00;;;1.00
65290;BMP180;51893;59.754;10.110;2024-01-30T14:03:22;102029.00;;;1.00
65290;BMP180;51893;59.754;10.110;2024-01-30T14:05:50;102025.40;;;1.00